createdAt,value
2023-04-20T00:02:05.424Z,96277.55
2023-04-20T00:04:34.518Z,96279.47
2023-04-20T00:07:02.643Z,96273.13
2023-04-20T00:09:30.701Z,96273.58
2023-04-20T00:11:58.632Z,96272.34
2023-04-20T00:14:26.792Z,96270.80
2023-04-20T00:16:54.808Z,96269.10
2023-04-20T00:19:23.303Z,96267.70
2023-04-20T00:21:51.470Z,96268.69
2023-04-20T00:24:19.544Z,96267.28
2023-04-20T00:26:47.511Z,96268.14
2023-04-20T00:29:15.746Z,96262.33
2023-04-20T00:31:44.052Z,96261.04
2023-04-20T00:34:12.339Z,96261.92
2023-04-20T00:36:40.483Z,96260.45
2023-04-20T00:39:08.578Z,96262.25
2023-04-20T00:41:36.666Z,96259.06
2023-04-20T00:44:08.081Z,96257.43
2023-04-20T00:46:36.003Z,96258.49
2023-04-20T00:49:06.317Z,96251.83
2023-04-20T00:51:34.792Z,96254.08
2023-04-20T00:54:03.057Z,96254.47
2023-04-20T00:56:31.004Z,96259.19
2023-04-20T00:58:59.610Z,96258.40
2023-04-20T01:01:28.036Z,96257.10
2023-04-20T01:03:56.245Z,96259.52
2023-04-20T01:06:24.334Z,96258.70
2023-04-20T01:08:55.159Z,96260.20
2023-04-20T01:11:23.657Z,96260.73
2023-04-20T01:13:51.722Z,96259.34
2023-04-20T01:16:19.902Z,96257.74
2023-04-20T01:18:48.891Z,96260.31
2023-04-20T01:21:17.783Z,96255.78
2023-04-20T01:23:46.258Z,96253.54
2023-04-20T01:26:15.871Z,96249.89
2023-04-20T01:28:44.664Z,96253.16
2023-04-20T01:31:12.976Z,96259.63
2023-04-20T01:33:41.614Z,96259.49
2023-04-20T01:36:09.994Z,96263.13
2023-04-20T01:38:37.940Z,96266.48
2023-04-20T01:41:07.888Z,96263.01
2023-04-20T01:43:36.270Z,96259.52
2023-04-20T01:46:05.422Z,96258.80
2023-04-20T01:48:33.873Z,96255.36
2023-04-20T01:51:02.029Z,96254.34
2023-04-20T01:53:30.021Z,96252.79
2023-04-20T01:55:59.505Z,96249.32
2023-04-20T01:58:27.568Z,96248.65
2023-04-20T02:00:56.071Z,96246.77
2023-04-20T02:03:24.553Z,96245.63
2023-04-20T02:05:52.687Z,96244.20
2023-04-20T02:08:21.302Z,96246.36
2023-04-20T02:10:49.209Z,96245.17
2023-04-20T02:13:17.444Z,96243.50
2023-04-20T02:15:46.539Z,96241.13
2023-04-20T02:18:15.830Z,96239.90
2023-04-20T02:20:44.791Z,96244.40
2023-04-20T02:23:12.749Z,96247.29
2023-04-20T02:25:40.858Z,96246.08
2023-04-20T02:30:41.823Z,96239.89
2023-04-20T02:33:13.049Z,96238.44
2023-04-20T02:35:41.230Z,96242.55
2023-04-20T02:38:12.488Z,96246.52
2023-04-20T02:40:40.654Z,96248.67
2023-04-20T02:43:09.231Z,96248.59
2023-04-20T02:45:38.764Z,96248.85
2023-04-20T02:48:07.703Z,96250.88
2023-04-20T02:50:38.049Z,96251.82
2023-04-20T02:53:15.765Z,96250.63
2023-04-20T02:55:44.650Z,96250.95
2023-04-20T02:58:21.541Z,96254.59
2023-04-20T03:01:16.139Z,96254.52
2023-04-20T03:03:45.501Z,96257.20
2023-04-20T03:06:13.830Z,96253.73
2023-04-20T03:08:44.531Z,96255.98
2023-04-20T03:11:43.666Z,96254.99
2023-04-20T03:14:12.639Z,96255.57
2023-04-20T03:16:41.386Z,96258.18
2023-04-20T03:19:09.370Z,96257.23
2023-04-20T03:21:37.376Z,96257.27
2023-04-20T03:24:07.273Z,96257.52
2023-04-20T03:26:36.538Z,96250.08
2023-04-20T03:29:17.463Z,96254.94
2023-04-20T03:31:46.501Z,96259.64
2023-04-20T03:34:14.710Z,96256.85
2023-04-20T03:36:43.366Z,96263.35
2023-04-20T03:39:11.574Z,96260.41
2023-04-20T03:41:39.740Z,96260.58
2023-04-20T03:44:07.693Z,96262.86
2023-04-20T03:46:36.706Z,96272.53
2023-04-20T03:49:04.585Z,96271.50
2023-04-20T03:51:32.855Z,96271.76
2023-04-20T03:54:01.125Z,96273.42
2023-04-20T03:56:29.908Z,96273.14
2023-04-20T03:58:58.147Z,96272.28
2023-04-20T04:01:28.128Z,96271.83
2023-04-20T04:03:56.506Z,96274.89
2023-04-20T04:06:24.670Z,96272.73
2023-04-20T04:08:52.846Z,96274.15
2023-04-20T04:11:21.422Z,96272.59
2023-04-20T04:13:49.800Z,96274.47
2023-04-20T04:16:17.987Z,96277.04
2023-04-20T04:18:47.165Z,96283.16
2023-04-20T04:21:15.450Z,96283.57
2023-04-20T04:23:46.797Z,96286.80
2023-04-20T04:31:40.455Z,96284.52
2023-04-20T04:34:18.727Z,96285.98
2023-04-20T04:36:50.566Z,96284.23
2023-04-20T04:39:22.813Z,96281.12
2023-04-20T04:42:00.714Z,96273.39
2023-04-20T04:44:34.322Z,96268.05
2023-04-20T04:47:03.488Z,96273.55
2023-04-20T04:49:32.851Z,96279.41
2023-04-20T04:52:01.736Z,96287.33
2023-04-20T04:54:29.816Z,96289.49
2023-04-20T04:56:58.469Z,96295.13
2023-04-20T04:59:26.567Z,96291.41
2023-04-20T05:01:54.860Z,96292.48
2023-04-20T05:04:23.204Z,96292.42
2023-04-20T05:06:51.495Z,96294.27
2023-04-20T05:09:20.284Z,96299.01
2023-04-20T05:11:48.459Z,96299.55
2023-04-20T05:14:16.637Z,96301.62
2023-04-20T05:16:44.914Z,96301.30
2023-04-20T05:19:12.875Z,96300.11
2023-04-20T05:21:41.166Z,96298.06
2023-04-20T05:24:09.095Z,96300.10
2023-04-20T05:26:37.104Z,96301.05
2023-04-20T05:29:04.993Z,96299.13
2023-04-20T05:31:33.534Z,96300.93
2023-04-20T05:34:03.050Z,96300.48
2023-04-20T05:36:31.020Z,96304.71
2023-04-20T05:38:58.999Z,96308.42
2023-04-20T05:41:27.583Z,96306.55
2023-04-20T05:43:56.363Z,96312.11
2023-04-20T05:46:24.588Z,96313.51
2023-04-20T05:48:52.703Z,96316.94
2023-04-20T05:51:22.087Z,96316.46
2023-04-20T05:53:50.444Z,96316.06
2023-04-20T05:56:18.799Z,96319.14
2023-04-20T05:58:46.939Z,96324.67
2023-04-20T06:01:14.916Z,96324.39
2023-04-20T06:03:43.414Z,96326.16
2023-04-20T06:06:11.676Z,96329.02
2023-04-20T06:08:39.621Z,96328.66
2023-04-20T06:11:07.922Z,96328.54
2023-04-20T06:13:36.109Z,96328.59
2023-04-20T06:16:09.840Z,96329.50
2023-04-20T06:21:11.331Z,96325.40
2023-04-20T06:28:45.638Z,96316.45
2023-04-20T06:31:13.935Z,96314.29
2023-04-20T06:33:42.176Z,96318.98
2023-04-20T06:36:10.132Z,96317.81
2023-04-20T06:38:38.233Z,96315.33
2023-04-20T06:43:39.683Z,96313.30
2023-04-20T06:46:07.924Z,96316.11
2023-04-20T06:48:36.276Z,96314.94
2023-04-20T06:56:11.470Z,96320.02
2023-04-20T06:58:39.494Z,96324.11
2023-04-20T07:01:07.420Z,96328.57
2023-04-20T07:03:35.853Z,96327.27
2023-04-20T07:06:04.722Z,96330.48
2023-04-20T07:13:41.427Z,96328.48
2023-04-20T07:18:43.713Z,96325.59
2023-04-20T07:21:12.195Z,96324.42
2023-04-20T07:23:41.118Z,96325.48
2023-04-20T07:26:10.384Z,96326.36
2023-04-20T07:28:38.557Z,96329.94
2023-04-20T07:33:39.612Z,96328.73
2023-04-20T07:36:08.322Z,96331.69
2023-04-20T07:38:36.888Z,96333.73
2023-04-20T07:41:09.660Z,96333.64
2023-04-20T07:43:37.918Z,96332.70
2023-04-20T07:46:06.079Z,96330.52
2023-04-20T07:48:35.216Z,96329.41
2023-04-20T07:51:03.321Z,96330.68
2023-04-20T07:53:31.457Z,96331.77
2023-04-20T07:55:59.846Z,96327.72
2023-04-20T07:58:27.918Z,96329.92
2023-04-20T08:00:55.891Z,96332.11
2023-04-20T08:03:24.289Z,96331.09
2023-04-20T08:05:52.558Z,96328.80
2023-04-20T08:08:20.912Z,96326.52
2023-04-20T08:10:49.088Z,96327.39
2023-04-20T08:13:17.171Z,96322.83
2023-04-20T08:15:45.286Z,96318.02
2023-04-20T08:18:13.328Z,96315.94
2023-04-20T08:20:41.685Z,96316.45
2023-04-20T08:25:42.841Z,96318.66
2023-04-20T08:28:19.223Z,96318.53
2023-04-20T08:30:48.111Z,96319.30
2023-04-20T08:33:16.195Z,96318.60
2023-04-20T08:35:44.865Z,96319.08
2023-04-20T08:38:15.902Z,96313.75
2023-04-20T08:40:46.640Z,96313.80
2023-04-20T08:43:14.914Z,96311.42
2023-04-20T08:45:42.885Z,96311.40
2023-04-20T08:48:11.129Z,96307.20
2023-04-20T08:50:41.283Z,96304.44
2023-04-20T08:53:10.274Z,96304.88
2023-04-20T08:55:38.336Z,96305.73
2023-04-20T08:58:06.519Z,96304.67
2023-04-20T09:00:34.690Z,96305.15
2023-04-20T09:03:02.920Z,96305.64
2023-04-20T09:05:31.904Z,96299.83
2023-04-20T09:08:01.287Z,96299.93
2023-04-20T09:10:39.896Z,96295.94
2023-04-20T09:13:08.057Z,96295.15
2023-04-20T09:15:36.126Z,96298.05
2023-04-20T09:18:17.660Z,96300.95
2023-04-20T09:20:46.176Z,96301.92
2023-04-20T09:23:15.508Z,96298.48
2023-04-20T09:25:46.160Z,96296.30
2023-04-20T09:28:14.316Z,96290.44
2023-04-20T09:30:44.107Z,96288.46
2023-04-20T09:33:14.391Z,96286.37
2023-04-20T09:35:43.336Z,96285.92
2023-04-20T09:38:12.226Z,96285.25
2023-04-20T09:43:24.145Z,96283.06
2023-04-20T09:45:52.461Z,96283.30
2023-04-20T09:48:21.908Z,96285.11
2023-04-20T09:50:51.441Z,96285.61
2023-04-20T09:55:53.514Z,96282.20
2023-04-20T09:58:21.823Z,96281.05
2023-04-20T10:00:50.531Z,96280.66
2023-04-20T10:03:19.544Z,96274.67
2023-04-20T10:16:06.854Z,96275.55
2023-04-20T10:18:34.989Z,96274.42
2023-04-20T10:21:09.651Z,96271.79
2023-04-20T10:23:48.789Z,96269.57
2023-04-20T10:26:16.967Z,96268.06
2023-04-20T10:28:45.271Z,96266.72
2023-04-20T10:31:14.116Z,96264.83
2023-04-20T10:33:55.410Z,96264.92
2023-04-20T10:36:24.200Z,96266.23
2023-04-20T10:55:22.509Z,96261.79
2023-04-20T10:57:50.081Z,96260.38
2023-04-20T11:00:21.418Z,96262.34
2023-04-20T11:02:55.896Z,96262.14
2023-04-20T11:05:24.416Z,96259.66
2023-04-20T11:07:58.138Z,96260.70
2023-04-20T11:10:39.201Z,96264.51
2023-04-20T11:13:06.451Z,96262.36
2023-04-20T11:23:24.856Z,96264.32
2023-04-20T11:25:55.489Z,96259.41
2023-04-20T11:28:22.653Z,96260.24
2023-04-20T11:30:50.300Z,96260.11
2023-04-20T11:33:30.077Z,96260.98
2023-04-20T11:35:57.311Z,96255.03
2023-04-20T11:38:33.665Z,96258.77
2023-04-20T11:46:18.759Z,96254.51
2023-04-20T11:48:46.844Z,96255.79
2023-04-20T11:51:13.898Z,96254.20
2023-04-20T11:53:41.248Z,96255.27
2023-04-20T11:56:08.513Z,96256.09
2023-04-20T11:58:35.846Z,96250.41
2023-04-20T12:01:02.706Z,96252.75
2023-04-20T12:03:29.700Z,96252.17
2023-04-20T12:05:56.533Z,96253.53
2023-04-20T12:08:24.247Z,96250.91
2023-04-20T12:10:51.087Z,96248.34
2023-04-20T12:13:17.833Z,96245.46
2023-04-20T12:15:44.845Z,96246.17
2023-04-20T12:18:11.812Z,96252.12
2023-04-20T12:20:38.557Z,96250.38
2023-04-20T12:23:05.194Z,96248.37
2023-04-20T12:25:31.801Z,96251.31
2023-04-20T12:27:58.689Z,96250.23
2023-04-20T12:30:25.641Z,96251.91
2023-04-20T12:32:52.559Z,96253.22
2023-04-20T12:35:20.646Z,96251.70
2023-04-20T12:37:47.491Z,96251.19
2023-04-20T12:40:14.345Z,96250.94
2023-04-20T12:42:40.926Z,96249.47
2023-04-20T12:45:08.329Z,96246.52
2023-04-20T12:47:35.043Z,96242.80
2023-04-20T12:50:02.717Z,96245.40
2023-04-20T12:52:29.394Z,96242.29
2023-04-20T12:54:56.105Z,96239.05
2023-04-20T12:57:22.694Z,96239.40
2023-04-20T12:59:49.476Z,96237.44
2023-04-20T13:02:17.168Z,96240.27
2023-04-20T13:04:44.962Z,96233.33
2023-04-20T13:07:11.849Z,96234.30
2023-04-20T13:09:38.601Z,96234.22
2023-04-20T13:12:05.858Z,96233.86
2023-04-20T13:14:32.445Z,96235.17
2023-04-20T13:17:01.368Z,96232.92
2023-04-20T13:19:29.547Z,96232.90
2023-04-20T13:21:56.504Z,96233.64
2023-04-20T13:24:23.445Z,96230.55
2023-04-20T13:26:52.433Z,96229.22
2023-04-20T13:29:19.296Z,96229.45
2023-04-20T13:31:47.810Z,96231.49
2023-04-20T13:34:14.552Z,96232.52
2023-04-20T13:36:41.346Z,96229.13
2023-04-20T13:39:09.626Z,96227.52
2023-04-20T13:41:36.474Z,96225.80
2023-04-20T13:44:03.215Z,96225.97
2023-04-20T13:46:29.889Z,96229.24
2023-04-20T13:48:56.589Z,96230.52
2023-04-20T13:51:23.738Z,96230.44
2023-04-20T13:53:50.583Z,96227.13
2023-04-20T13:56:17.328Z,96228.17
2023-04-20T13:58:44.063Z,96226.70
2023-04-20T14:01:11.815Z,96228.65
2023-04-20T14:03:39.444Z,96227.08
2023-04-20T14:06:06.329Z,96227.82
2023-04-20T14:08:32.971Z,96225.31
2023-04-20T14:10:59.702Z,96227.08
2023-04-20T14:13:26.345Z,96226.73
2023-04-20T14:15:53.342Z,96224.04
2023-04-20T14:18:20.128Z,96224.21
2023-04-20T14:20:49.242Z,96223.39
2023-04-20T14:23:15.968Z,96224.41
2023-04-20T14:25:42.629Z,96224.45
2023-04-20T14:28:09.458Z,96222.16
2023-04-20T14:30:36.123Z,96225.30
2023-04-20T14:33:04.637Z,96225.93
2023-04-20T14:35:31.422Z,96225.40
2023-04-20T14:37:58.089Z,96226.91
2023-04-20T14:40:24.919Z,96226.66
2023-04-20T14:42:51.477Z,96227.15
2023-04-20T14:45:18.295Z,96225.27
2023-04-20T14:47:45.159Z,96233.05
2023-04-20T14:50:11.987Z,96230.23
2023-04-20T14:52:38.999Z,96229.94
2023-04-20T14:55:06.156Z,96233.50
2023-04-20T14:57:33.723Z,96238.33
2023-04-20T15:00:00.480Z,96229.55
2023-04-20T15:02:27.452Z,96233.12
2023-04-20T15:04:57.385Z,96236.65
2023-04-20T15:07:25.003Z,96232.89
2023-04-20T15:09:51.816Z,96234.52
2023-04-20T15:12:18.465Z,96237.27
2023-04-20T15:14:45.098Z,96235.91
2023-04-20T15:17:13.277Z,96238.27
2023-04-20T15:19:45.342Z,96238.99
2023-04-20T15:22:13.215Z,96239.78
2023-04-20T15:24:40.457Z,96240.57
2023-04-20T15:27:07.298Z,96240.40
2023-04-20T15:29:34.148Z,96242.09
2023-04-20T15:32:00.998Z,96243.23
2023-04-20T15:34:28.239Z,96241.67
2023-04-20T15:36:55.595Z,96244.84
2023-04-20T15:39:22.228Z,96242.96
2023-04-20T15:41:48.775Z,96238.57
2023-04-20T15:44:15.504Z,96240.50
2023-04-20T15:46:42.197Z,96243.15
2023-04-20T15:49:09.000Z,96239.67
2023-04-20T15:51:35.626Z,96238.25
2023-04-20T15:54:02.584Z,96238.45
2023-04-20T15:56:29.327Z,96240.67
2023-04-20T15:58:56.065Z,96242.31
2023-04-20T16:01:22.826Z,96242.02
2023-04-20T16:03:49.893Z,96239.23
2023-04-20T16:06:16.891Z,96241.62
2023-04-20T16:08:43.729Z,96238.80
2023-04-20T16:11:10.369Z,96237.44
2023-04-20T16:13:37.120Z,96239.34
2023-04-20T16:16:04.036Z,96241.10
2023-04-20T16:18:32.428Z,96242.41
2023-04-20T16:20:59.318Z,96244.24
2023-04-20T16:23:26.030Z,96240.56
2023-04-20T16:25:52.860Z,96241.89
2023-04-20T16:28:19.719Z,96241.48
2023-04-20T16:30:46.461Z,96240.98
2023-04-20T16:33:13.763Z,96244.48
2023-04-20T16:35:40.660Z,96243.25
2023-04-20T16:38:08.946Z,96246.73
2023-04-20T16:40:37.100Z,96244.73
2023-04-20T16:43:04.035Z,96246.77
2023-04-20T16:45:32.350Z,96249.98
2023-04-20T16:47:59.102Z,96248.67
2023-04-20T16:50:26.012Z,96249.01
2023-04-20T16:52:52.863Z,96251.30
2023-04-20T16:55:19.824Z,96252.40
2023-04-20T16:57:46.427Z,96254.74
2023-04-20T17:00:14.344Z,96253.80
2023-04-20T17:02:41.168Z,96255.17
2023-04-20T17:05:08.447Z,96255.41
2023-04-20T17:07:36.490Z,96258.56
2023-04-20T17:10:03.078Z,96264.34
2023-04-20T17:12:29.750Z,96258.98
2023-04-20T17:14:56.491Z,96256.92
2023-04-20T17:17:23.456Z,96257.25
2023-04-20T17:19:50.180Z,96262.05
2023-04-20T17:22:17.012Z,96264.21
2023-04-20T17:24:43.862Z,96266.50
2023-04-20T17:27:10.909Z,96268.35
2023-04-20T17:29:38.052Z,96265.31
2023-04-20T17:32:05.443Z,96272.60
2023-04-20T17:34:32.300Z,96275.31
2023-04-20T17:36:59.055Z,96278.27
2023-04-20T17:39:26.139Z,96280.70
2023-04-20T17:41:52.714Z,96280.08
2023-04-20T17:44:19.811Z,96280.89
2023-04-20T17:46:46.672Z,96282.02
2023-04-20T17:49:13.307Z,96284.14
2023-04-20T17:51:40.067Z,96285.41
2023-04-20T17:54:07.085Z,96289.35
2023-04-20T17:56:33.728Z,96290.00
2023-04-20T17:59:00.292Z,96291.59
2023-04-20T18:01:27.484Z,96291.96
2023-04-20T18:03:54.493Z,96293.92
2023-04-20T18:06:21.411Z,96295.73
2023-04-20T18:08:48.259Z,96294.80
2023-04-20T18:11:15.210Z,96296.18
2023-04-20T18:13:41.838Z,96296.59
2023-04-20T18:16:08.810Z,96294.88
2023-04-20T18:18:35.545Z,96294.05
2023-04-20T18:21:03.627Z,96293.23
2023-04-20T18:23:31.097Z,96295.86
2023-04-20T18:25:57.700Z,96300.60
2023-04-20T18:28:24.543Z,96303.64
2023-04-20T18:30:51.285Z,96305.64
2023-04-20T18:33:20.475Z,96310.84
2023-04-20T18:35:49.475Z,96315.34
2023-04-20T18:38:16.226Z,96321.31
2023-04-20T18:40:43.167Z,96323.32
2023-04-20T18:43:10.200Z,96325.33
2023-04-20T18:45:37.159Z,96329.05
2023-04-20T18:48:04.538Z,96332.30
2023-04-20T18:50:31.450Z,96332.94
2023-04-20T18:52:58.287Z,96334.20
2023-04-20T18:55:25.244Z,96333.33
2023-04-20T18:57:51.992Z,96331.31
2023-04-20T19:00:19.132Z,96332.86
2023-04-20T19:02:46.095Z,96335.23
2023-04-20T19:05:13.140Z,96334.88
2023-04-20T19:07:40.275Z,96334.59
2023-04-20T19:10:08.036Z,96336.55
2023-04-20T19:12:37.547Z,96339.31
2023-04-20T19:15:05.513Z,96338.04
2023-04-20T19:17:32.224Z,96338.20
2023-04-20T19:19:58.885Z,96340.78
2023-04-20T19:22:25.597Z,96338.69
2023-04-20T19:24:52.097Z,96339.67
2023-04-20T19:27:18.699Z,96340.09
2023-04-20T19:29:45.446Z,96341.13
2023-04-20T19:32:12.241Z,96339.12
2023-04-20T19:34:38.898Z,96336.63
2023-04-20T19:37:05.780Z,96337.60
2023-04-20T19:39:33.674Z,96341.34
2023-04-20T19:42:01.911Z,96344.29
2023-04-20T19:44:28.552Z,96346.76
2023-04-20T19:46:55.293Z,96349.30
2023-04-20T19:49:21.935Z,96351.23
2023-04-20T19:51:48.570Z,96354.48
2023-04-20T19:54:16.839Z,96353.73
2023-04-20T19:56:43.478Z,96352.42
2023-04-20T19:59:10.344Z,96349.85
2023-04-20T20:01:37.003Z,96347.11
2023-04-20T20:04:03.877Z,96343.96
2023-04-20T20:06:31.986Z,96340.40
2023-04-20T20:08:59.087Z,96339.75
2023-04-20T20:11:26.297Z,96345.05
2023-04-20T20:13:52.798Z,96344.13
2023-04-20T20:16:19.931Z,96344.20
2023-04-20T20:18:47.320Z,96345.25
2023-04-20T20:21:14.159Z,96346.64
2023-04-20T20:23:41.003Z,96344.52
2023-04-20T20:26:07.539Z,96343.14
2023-04-20T20:28:34.190Z,96342.94
2023-04-20T20:31:01.046Z,96342.36
2023-04-20T20:33:27.772Z,96346.65
2023-04-20T20:35:54.823Z,96344.36
2023-04-20T20:38:22.023Z,96342.29
2023-04-20T20:40:49.818Z,96341.09
2023-04-20T20:43:17.690Z,96341.30
2023-04-20T20:45:44.543Z,96340.69
2023-04-20T20:48:11.089Z,96343.11
2023-04-20T20:50:38.019Z,96339.71
2023-04-20T20:53:05.271Z,96339.84
2023-04-20T20:55:32.011Z,96337.63
2023-04-20T20:57:58.657Z,96342.08
2023-04-20T21:00:25.376Z,96341.20
2023-04-20T21:02:52.372Z,96348.10
2023-04-20T21:05:19.271Z,96345.61
2023-04-20T21:07:45.921Z,96345.13
2023-04-20T21:10:12.570Z,96351.31
2023-04-20T21:12:39.287Z,96356.54
2023-04-20T21:15:06.868Z,96355.29
2023-04-20T21:17:33.622Z,96353.69
2023-04-20T21:20:00.563Z,96355.77
2023-04-20T21:22:27.285Z,96358.44
2023-04-20T21:24:53.918Z,96360.33
2023-04-20T21:27:20.468Z,96362.04
2023-04-20T21:29:47.207Z,96362.94
2023-04-20T21:32:13.982Z,96364.95
2023-04-20T21:34:41.504Z,96363.77
2023-04-20T21:37:08.858Z,96361.80
2023-04-20T21:39:35.911Z,96362.38
2023-04-20T21:42:02.854Z,96361.07
2023-04-20T21:44:29.694Z,96360.16
2023-04-20T21:46:56.632Z,96359.02
2023-04-20T21:49:23.607Z,96356.96
2023-04-20T21:51:50.732Z,96358.65
2023-04-20T21:54:17.272Z,96360.70
2023-04-20T21:56:44.010Z,96362.05
2023-04-20T21:59:10.651Z,96358.57
2023-04-20T22:01:37.564Z,96356.70
2023-04-20T22:04:04.582Z,96354.02
2023-04-20T22:06:31.994Z,96354.34
2023-04-20T22:08:58.636Z,96351.08
2023-04-20T22:11:25.327Z,96353.58
2023-04-20T22:13:52.310Z,96353.94
2023-04-20T22:16:20.517Z,96352.80
2023-04-20T22:18:48.614Z,96350.55
2023-04-20T22:21:15.514Z,96352.23
2023-04-20T22:23:41.970Z,96353.90
2023-04-20T22:26:08.673Z,96353.05
2023-04-20T22:28:35.312Z,96352.77
2023-04-20T22:31:02.125Z,96349.81
2023-04-20T22:33:29.065Z,96352.02
2023-04-20T22:35:55.758Z,96352.84
2023-04-20T22:38:22.531Z,96349.23
2023-04-20T22:40:49.434Z,96346.36
2023-04-20T22:43:16.176Z,96343.09
2023-04-20T22:45:42.721Z,96347.80
2023-04-20T22:48:09.552Z,96346.33
2023-04-20T22:50:36.214Z,96342.90
2023-04-20T22:53:03.957Z,96343.71
2023-04-20T22:55:30.524Z,96344.61
2023-04-20T22:57:57.342Z,96347.89
2023-04-20T23:00:24.079Z,96350.13
2023-04-20T23:02:50.902Z,96348.29
2023-04-20T23:05:19.709Z,96351.23
2023-04-20T23:07:46.647Z,96350.49
2023-04-20T23:10:15.570Z,96347.02
2023-04-20T23:12:44.031Z,96346.61
2023-04-20T23:15:11.487Z,96343.79
2023-04-20T23:17:38.538Z,96347.17
2023-04-20T23:20:09.804Z,96346.98
2023-04-20T23:22:36.712Z,96346.77
2023-04-20T23:25:03.350Z,96346.36
2023-04-20T23:27:30.100Z,96347.86
2023-04-20T23:29:56.746Z,96346.23
2023-04-20T23:32:24.210Z,96347.05
2023-04-20T23:34:50.946Z,96348.27
2023-04-20T23:37:17.577Z,96348.52
2023-04-20T23:39:44.326Z,96346.48
2023-04-20T23:42:10.963Z,96346.56
2023-04-20T23:44:37.586Z,96345.65
2023-04-20T23:47:04.138Z,96345.20
2023-04-20T23:49:30.763Z,96345.31
2023-04-20T23:51:57.412Z,96343.68
2023-04-20T23:54:24.151Z,96344.88
2023-04-20T23:56:50.901Z,96342.26
2023-04-20T23:59:17.767Z,96341.55
